Time;durP1;ratioP1;P1;durP2;ratioP2;P2;SDS_P1;SDS_P2;PMS_P1;PMS_P2;Temp;Humidity;BMP_temperature;BMP_pressure;BME280_temperature;BME280_humidity;BME280_pressure;Samples;Min_cycle;Max_cycle;Signal;HPM_P1;HPM_P2
2021/10/08 05:00:43;;;;;;;3.60;3.15;;;;;;;9.81;100.00;95379.13;5928414;23;20149;-76
2021/10/08 05:03:13;;;;;;;2.97;2.75;;;;;;;9.85;100.00;95390.78;4937454;28;20074;-75
2021/10/08 05:05:38;;;;;;;;;;;;;;;9.85;100.00;95393.38;4971804;28;20018;-76
2021/10/08 05:08:04;;;;;;;3.10;2.28;;;;;;;9.86;100.00;95394.97;4970756;28;19921;-76
2021/10/08 05:10:30;;;;;;;3.20;2.70;;;;;;;9.85;100.00;95395.97;4971101;28;20046;-76
2021/10/08 05:12:55;;;;;;;3.47;2.40;;;;;;;9.85;100.00;95395.97;4970148;28;20031;-75
2021/10/08 05:15:21;;;;;;;2.13;1.80;;;;;;;9.82;100.00;95391.09;4971426;28;20369;-75
2021/10/08 05:17:46;;;;;;;4.03;1.98;;;;;;;9.85;100.00;95395.13;4970623;28;20500;-76
2021/10/08 05:20:12;;;;;;;1.98;1.88;;;;;;;9.83;100.00;95391.88;4971364;28;20162;-76
2021/10/08 05:22:37;;;;;;;3.95;2.20;;;;;;;9.82;100.00;95401.44;4971268;28;20073;-75
2021/10/08 05:25:04;;;;;;;4.60;2.30;;;;;;;9.86;100.00;95405.31;4970717;28;20448;-75
2021/10/08 05:27:29;;;;;;;4.40;2.20;;;;;;;9.86;100.00;95407.91;4971588;28;20046;-76
2021/10/08 05:29:54;;;;;;;2.17;1.98;;;;;;;9.87;100.00;95398.38;4969774;28;20054;-78
2021/10/08 05:32:20;;;;;;;3.38;3.08;;;;;;;9.88;100.00;95418.94;4971557;28;20035;-76
2021/10/08 05:34:45;;;;;;;2.38;2.15;;;;;;;9.85;100.00;95424.41;4969263;28;20085;-75
2021/10/08 05:37:11;;;;;;;1.77;1.63;;;;;;;9.87;100.00;95427.66;4971045;28;20041;-75
2021/10/08 05:39:36;;;;;;;1.70;1.60;;;;;;;9.89;100.00;95428.28;4969921;28;20030;-75
2021/10/08 05:42:02;;;;;;;1.98;1.75;;;;;;;9.88;100.00;95434.44;4971140;28;20505;-75
2021/10/08 05:44:27;;;;;;;4.22;1.60;;;;;;;9.94;100.00;95433.81;4970396;28;20033;-76
2021/10/08 05:46:54;;;;;;;2.05;1.55;;;;;;;9.91;100.00;95420.38;4969610;28;20026;-75
2021/10/08 05:49:20;;;;;;;1.33;1.25;;;;;;;9.99;100.00;95417.81;4971418;28;20031;-75
2021/10/08 05:51:45;;;;;;;3.50;1.45;;;;;;;9.97;100.00;95405.06;4969633;28;20105;-75
2021/10/08 05:54:11;;;;;;;1.30;1.20;;;;;;;9.95;100.00;95406.97;4970979;28;20031;-75
2021/10/08 05:56:36;;;;;;;1.20;1.10;;;;;;;9.96;100.00;95400.84;4969500;28;20084;-75
2021/10/08 05:59:02;;;;;;;1.65;1.25;;;;;;;10.01;100.00;95406.38;4970730;28;20026;-75
2021/10/08 06:01:27;;;;;;;1.17;1.17;;;;;;;10.03;100.00;95401.03;4970053;28;20047;-75
2021/10/08 06:03:53;;;;;;;1.77;1.02;;;;;;;10.02;100.00;95391.63;4969567;28;20023;-75
2021/10/08 06:06:18;;;;;;;1.13;1.00;;;;;;;10.06;100.00;95383.41;4953583;28;20062;-75
2021/10/08 06:08:44;;;;;;;1.50;1.10;;;;;;;10.07;100.00;95379.88;4968782;28;20093;-75
2021/10/08 06:11:09;;;;;;;2.25;1.17;;;;;;;10.05;100.00;95371.44;4970892;28;20087;-75
2021/10/08 06:13:35;;;;;;;1.77;1.20;;;;;;;10.12;100.00;95373.38;4968426;28;20022;-75
2021/10/08 06:16:00;;;;;;;3.15;1.20;;;;;;;10.11;100.00;95364.84;4970385;28;20117;-75
2021/10/08 06:18:26;;;;;;;1.20;1.20;;;;;;;10.05;100.00;95374.03;4969445;28;20027;-75
2021/10/08 06:20:51;;;;;;;1.42;0.98;;;;;;;10.04;100.00;95379.38;4970253;28;20472;-76
2021/10/08 06:23:17;;;;;;;1.15;1.02;;;;;;;10.07;100.00;95386.81;4970386;28;20468;-75
2021/10/08 06:25:42;;;;;;;5.03;4.13;;;;;;;10.02;100.00;95400.22;4968090;28;20046;-75
2021/10/08 06:28:09;;;;;;;1.13;1.13;;;;;;;9.98;100.00;95396.34;4969818;28;20512;-75
2021/10/08 06:30:35;;;;;;;1.20;1.10;;;;;;;10.03;100.00;95401.84;4968207;28;20034;-75
2021/10/08 06:33:00;;;;;;;1.48;1.38;;;;;;;9.99;100.00;95412.66;4970020;28;20472;-75
2021/10/08 06:35:26;;;;;;;1.55;1.33;;;;;;;9.93;100.00;95411.50;4968519;28;20038;-75
2021/10/08 06:37:51;;;;;;;1.40;1.30;;;;;;;9.90;100.00;95419.56;4969950;28;20050;-74
2021/10/08 06:40:17;;;;;;;1.30;1.20;;;;;;;9.81;100.00;95409.34;4952221;28;20408;-74
2021/10/08 06:42:42;;;;;;;1.10;1.10;;;;;;;9.91;100.00;95428.16;4969020;28;20055;-75
2021/10/08 06:45:08;;;;;;;1.00;1.00;;;;;;;9.90;100.00;95427.34;4970012;28;20027;-75
2021/10/08 06:47:33;;;;;;;1.85;1.75;;;;;;;9.92;100.00;95434.94;4968508;28;20030;-75
2021/10/08 06:49:59;;;;;;;0.60;0.60;;;;;;;9.94;100.00;95440.78;4969705;28;20487;-75
2021/10/08 06:52:25;;;;;;;1.23;0.80;;;;;;;9.86;100.00;95441.53;4968577;28;20033;-75
2021/10/08 06:54:50;;;;;;;1.45;1.35;;;;;;;9.86;100.00;95433.78;4969490;28;20098;-75
2021/10/08 06:57:15;;;;;;;2.10;1.52;;;;;;;9.90;100.00;95444.63;4968108;28;20034;-74
2021/10/08 06:59:41;;;;;;;15.75;7.03;;;;;;;10.02;100.00;95449.38;4969411;28;20031;-74
2021/10/08 07:02:06;;;;;;;13.05;8.32;;;;;;;9.94;100.00;95456.28;4969004;28;20066;-75
2021/10/08 07:04:32;;;;;;;16.23;10.02;;;;;;;10.00;100.00;95466.84;4968944;28;20863;-75
2021/10/08 07:06:57;;;;;;;4.30;2.58;;;;;;;9.95;100.00;95476.03;4969642;28;20054;-75
2021/10/08 07:09:23;;;;;;;1.10;1.10;;;;;;;9.89;100.00;95472.25;4967748;28;20027;-74
2021/10/08 07:11:48;;;;;;;0.70;0.70;;;;;;;9.92;100.00;95484.09;4969691;28;20050;-75
2021/10/08 07:14:14;;;;;;;5.97;3.03;;;;;;;9.97;100.00;95476.69;4968147;28;20457;-74
2021/10/08 07:16:40;;;;;;;3.83;3.42;;;;;;;9.94;100.00;95467.47;4970012;28;20498;-75
2021/10/08 07:19:11;;;;;;;5.63;4.03;;;;;;;9.89;100.00;95469.69;4968383;28;20033;-74
2021/10/08 07:21:36;;;;;;;4.30;3.90;;;;;;;9.95;100.00;95463.09;4969048;28;20050;-75
2021/10/08 07:24:02;;;;;;;0.98;0.98;;;;;;;9.93;100.00;95460.66;4952125;28;20031;-75
2021/10/08 07:26:30;;;;;;;1.95;0.77;;;;;;;9.96;100.00;95455.16;4967852;28;20018;-75
2021/10/08 07:28:55;;;;;;;0.70;0.70;;;;;;;10.02;100.00;95458.91;4968884;28;20031;-76
2021/10/08 07:31:21;;;;;;;0.63;0.60;;;;;;;10.00;100.00;95456.50;4950846;28;20023;-75
2021/10/08 07:33:46;;;;;;;0.50;0.50;;;;;;;10.00;100.00;95455.69;4969828;28;20109;-75
2021/10/08 07:36:12;;;;;;;0.55;0.55;;;;;;;9.99;100.00;95467.78;4968374;28;20525;-75
2021/10/08 07:38:38;;;;;;;1.00;0.50;;;;;;;9.98;100.00;95466.19;4973066;28;20540;-75
2021/10/08 07:41:04;;;;;;;0.85;0.60;;;;;;;10.00;100.00;95477.19;4972697;28;20401;-75
2021/10/08 07:43:29;;;;;;;0.90;0.90;;;;;;;9.92;100.00;95466.78;4972137;28;20029;-75
2021/10/08 07:45:55;;;;;;;0.93;0.90;;;;;;;9.94;100.00;95461.47;4973131;28;20189;-75
2021/10/08 07:48:20;;;;;;;0.60;0.60;;;;;;;10.05;100.00;95479.28;4971670;28;20037;-75
2021/10/08 07:50:46;;;;;;;1.52;1.42;;;;;;;9.93;100.00;95486.53;4973305;28;20045;-75
2021/10/08 07:53:11;;;;;;;0.90;0.90;;;;;;;9.96;100.00;95501.75;4971727;28;20559;-75
2021/10/08 07:55:37;;;;;;;0.90;0.90;;;;;;;9.90;100.00;95501.53;4973465;28;20448;-75
2021/10/08 07:58:02;;;;;;;1.60;1.50;;;;;;;9.85;100.00;95503.78;4971905;28;20436;-75
2021/10/08 08:00:28;;;;;;;1.98;1.88;;;;;;;9.85;100.00;95509.78;4972303;28;20484;-75
2021/10/08 08:02:53;;;;;;;1.80;1.52;;;;;;;9.79;100.00;95499.22;4973174;28;20031;-75
2021/10/08 08:05:19;;;;;;;1.30;1.20;;;;;;;9.83;100.00;95500.53;4971298;28;20488;-75
2021/10/08 08:07:44;;;;;;;1.52;0.85;;;;;;;9.85;100.00;95501.19;4973055;28;20030;-75
2021/10/08 08:10:10;;;;;;;0.90;0.90;;;;;;;9.81;100.00;95500.69;4971062;28;20042;-75
2021/10/08 08:12:36;;;;;;;1.17;1.00;;;;;;;9.90;100.00;95504.13;4973026;28;20477;-75
2021/10/08 08:15:02;;;;;;;1.10;1.02;;;;;;;9.93;100.00;95511.59;4971169;28;20019;-75
2021/10/08 08:17:28;;;;;;;1.00;0.90;;;;;;;10.00;100.00;95512.59;4972679;28;20404;-75
2021/10/08 08:19:53;;;;;;;2.05;1.00;;;;;;;10.25;100.00;95516.16;4971827;28;20023;-78
2021/10/08 08:22:18;;;;;;;1.17;1.08;;;;;;;10.31;100.00;95520.72;4971824;28;20023;-78
2021/10/08 08:24:44;;;;;;;1.10;1.10;;;;;;;10.15;100.00;95521.44;4972697;28;20533;-77
2021/10/08 08:27:09;;;;;;;1.20;1.10;;;;;;;10.18;100.00;95515.16;4970793;28;20543;-78
2021/10/08 08:29:35;;;;;;;2.72;1.02;;;;;;;10.34;100.00;95508.25;4972387;28;20039;-78
2021/10/08 08:32:00;;;;;;;1.25;1.10;;;;;;;10.39;100.00;95516.41;4971262;28;20039;-77
2021/10/08 08:34:27;;;;;;;1.33;1.23;;;;;;;10.24;100.00;95511.97;4972206;28;20054;-78
2021/10/08 08:36:53;;;;;;;1.60;1.50;;;;;;;10.19;100.00;95504.66;4971435;28;20038;-77
2021/10/08 08:39:20;;;;;;;1.08;0.90;;;;;;;10.32;100.00;95517.16;4971168;28;20071;-78
2021/10/08 08:41:45;;;;;;;0.85;0.85;;;;;;;10.00;100.00;95513.41;4972333;28;20019;-75
2021/10/08 08:44:11;;;;;;;1.15;1.10;;;;;;;10.08;100.00;95521.22;4970784;28;20022;-75
2021/10/08 08:46:36;;;;;;;1.25;0.68;;;;;;;10.09;100.00;95527.19;4972108;28;20038;-75
2021/10/08 08:49:02;;;;;;;0.65;0.65;;;;;;;10.06;100.00;95523.16;4969076;28;20035;-77
2021/10/08 08:51:28;;;;;;;1.10;1.08;;;;;;;10.05;100.00;95520.69;4972014;28;20030;-77
2021/10/08 08:53:54;;;;;;;0.90;0.90;;;;;;;10.15;100.00;95533.56;4969951;28;20476;-77
2021/10/08 08:56:20;;;;;;;0.90;0.90;;;;;;;9.94;100.00;95529.56;4953024;28;20037;-76
2021/10/08 08:58:45;;;;;;;1.05;1.00;;;;;;;10.02;100.00;95542.53;4966813;28;20027;-75
2021/10/08 09:01:11;;;;;;;1.23;1.20;;;;;;;10.12;100.00;95544.19;4959669;28;20158;-78
2021/10/08 09:03:36;;;;;;;1.30;1.20;;;;;;;10.06;100.00;95538.69;4963783;28;20109;-77
2021/10/08 09:06:02;;;;;;;4.00;1.20;;;;;;;9.98;100.00;95543.81;4952815;28;20030;-79
2021/10/08 09:08:31;;;;;;;1.20;0.90;;;;;;;9.98;100.00;95546.41;4971455;28;20029;-78
2021/10/08 09:10:59;;;;;;;2.17;0.95;;;;;;;9.99;100.00;95548.00;4970663;28;20471;-78
2021/10/08 09:13:25;;;;;;;1.05;0.80;;;;;;;10.04;100.00;95548.38;4972012;28;20094;-78
2021/10/08 09:15:58;;;;;;;0.68;0.60;;;;;;;9.95;100.00;95538.91;4950743;28;20499;-75
2021/10/08 09:18:28;;;;;;;1.17;0.65;;;;;;;9.91;100.00;95529.88;4970425;28;20030;-78
2021/10/08 09:21:06;;;;;;;;;;;;;;;10.08;100.00;95534.16;4972130;28;20110;-78
2021/10/08 09:23:39;;;;;;;1.00;0.80;;;;;;;10.16;100.00;95532.59;4969609;28;20782;-77
2021/10/08 09:26:05;;;;;;;1.15;1.05;;;;;;;10.26;100.00;95543.66;4971382;28;20034;-78
2021/10/08 09:28:31;;;;;;;1.40;0.50;;;;;;;10.14;100.00;95529.38;4952167;28;20493;-78
2021/10/08 09:30:56;;;;;;;0.95;0.70;;;;;;;10.01;100.00;95534.94;4971437;28;20089;-77
2021/10/08 09:33:23;;;;;;;0.60;0.60;;;;;;;10.00;100.00;95535.88;4970815;28;20018;-77
2021/10/08 09:35:51;;;;;;;3.70;2.13;;;;;;;9.90;100.00;95530.81;4970704;28;20054;-78
2021/10/08 09:38:17;;;;;;;3.20;2.00;;;;;;;9.91;100.00;95524.69;4970851;28;20385;-78
2021/10/08 09:40:50;;;;;;;6.00;5.43;;;;;;;9.91;100.00;95529.03;4969969;28;20034;-78
2021/10/08 09:43:28;;;;;;;4.22;3.83;;;;;;;9.92;100.00;95528.09;4971039;28;20551;-79
2021/10/08 09:46:03;;;;;;;2.58;2.20;;;;;;;10.09;100.00;95532.38;4969730;28;20026;-78
2021/10/08 09:48:31;;;;;;;0.93;0.60;;;;;;;9.88;100.00;95539.69;4970338;28;20034;-78
2021/10/08 09:51:06;;;;;;;5.53;0.30;;;;;;;9.73;100.00;95534.25;4970893;28;20110;-77
2021/10/08 09:53:47;;;;;;;0.73;0.55;;;;;;;9.81;100.00;95536.09;4971428;28;20119;-77
2021/10/08 09:56:32;;;;;;;1.85;0.30;;;;;;;9.97;100.00;95542.19;4957734;28;20404;-78
2021/10/08 09:58:58;;;;;;;1.35;0.30;;;;;;;9.75;100.00;95539.28;4952298;28;20085;-78
2021/10/08 10:01:25;;;;;;;0.47;0.20;;;;;;;9.73;100.00;95536.03;4970691;28;20043;-78
2021/10/08 10:03:51;;;;;;;0.90;0.28;;;;;;;9.69;100.00;95530.34;4968972;28;20443;-75
2021/10/08 10:06:17;;;;;;;0.95;0.30;;;;;;;9.71;100.00;95522.44;4962104;28;20405;-76
2021/10/08 10:08:43;;;;;;;0.38;0.30;;;;;;;9.69;100.00;95509.66;4912321;29;20039;-76
2021/10/08 10:11:08;;;;;;;2.28;0.68;;;;;;;9.85;100.00;95509.78;4917093;29;20031;-76
2021/10/08 10:13:36;;;;;;;0.88;0.60;;;;;;;9.81;100.00;95510.22;4945861;28;20027;-76
2021/10/08 10:16:02;;;;;;;2.53;0.90;;;;;;;9.77;100.00;95501.94;4953018;28;20400;-76
2021/10/08 10:18:27;;;;;;;0.77;0.52;;;;;;;9.85;100.00;95499.44;4949031;28;20031;-80
2021/10/08 10:20:53;;;;;;;0.45;0.32;;;;;;;9.96;100.00;95500.94;4952667;28;20039;-78
2021/10/08 10:23:20;;;;;;;1.38;0.20;;;;;;;9.89;100.00;95505.91;4948700;29;20046;-78
2021/10/08 10:25:47;;;;;;;0.88;0.30;;;;;;;9.94;100.00;95493.34;4949215;28;20421;-81
2021/10/08 10:28:12;;;;;;;1.92;1.00;;;;;;;9.87;100.00;95488.91;4932076;29;20031;-81
2021/10/08 10:30:38;;;;;;;2.17;1.95;;;;;;;9.89;100.00;95484.38;4954182;29;20549;-81
2021/10/08 10:33:03;;;;;;;2.33;1.85;;;;;;;10.01;100.00;95478.00;4949528;29;20474;-79
2021/10/08 10:35:44;;;;;;;7.78;2.80;;;;;;;9.90;100.00;95466.13;4917203;29;20432;-80
2021/10/08 10:38:38;;;;;;;2.08;1.90;;;;;;;9.87;100.00;95463.03;4956419;29;20035;-78
2021/10/08 10:41:09;;;;;;;2.22;1.13;;;;;;;9.92;100.00;95464.19;4967375;28;20023;-78
2021/10/08 10:43:37;;;;;;;1.55;0.80;;;;;;;9.96;100.00;95475.88;4953779;28;20027;-79
2021/10/08 10:51:57;;;;;;;0.82;0.22;;;;;;;10.02;100.00;95453.72;4948804;28;20381;-77
2021/10/08 10:54:34;;;;;;;0.77;0.77;;;;;;;10.05;100.00;95449.06;4949892;28;20035;-77
2021/10/08 10:57:01;;;;;;;3.60;2.83;;;;;;;10.06;100.00;95452.47;4950737;28;20042;-75
2021/10/08 10:59:27;;;;;;;3.45;3.10;;;;;;;10.32;100.00;95465.38;4948299;28;20505;-75
2021/10/08 11:04:30;;;;;;;5.03;3.65;;;;;;;10.27;100.00;95473.63;4948103;28;20039;-77
2021/10/08 11:07:25;;;;;;;2.83;1.67;;;;;;;10.38;100.00;95472.53;4950162;29;20453;-77
2021/10/08 11:10:03;;;;;;;1.35;1.23;;;;;;;10.46;100.00;95480.34;4936533;28;20153;-77
2021/10/08 11:12:30;;;;;;;1.23;0.80;;;;;;;10.42;100.00;95474.66;4948292;28;20031;-77
2021/10/08 11:15:16;;;;;;;1.58;0.65;;;;;;;10.44;100.00;95477.06;4949978;29;20038;-77
2021/10/08 11:17:55;;;;;;;0.90;0.88;;;;;;;10.55;100.00;95481.97;4948353;28;20035;-77
2021/10/08 11:20:32;;;;;;;3.70;0.77;;;;;;;10.42;100.00;95456.53;4949977;29;20425;-78
2021/10/08 11:23:02;;;;;;;0.93;0.63;;;;;;;10.71;100.00;95456.13;4950137;29;20209;-77
2021/10/08 11:25:27;;;;;;;;;;;;;;;10.87;100.00;95460.50;4948925;28;20029;-78
2021/10/08 11:27:53;;;;;;;2.35;0.60;;;;;;;10.72;100.00;95462.13;4949885;29;19914;-77
2021/10/08 11:30:18;;;;;;;0.55;0.50;;;;;;;10.60;100.00;95453.81;4948457;29;20046;-78
2021/10/08 11:32:47;;;;;;;2.53;0.20;;;;;;;10.52;100.00;95452.03;4949496;28;20034;-77
2021/10/08 11:35:18;;;;;;;5.27;0.30;;;;;;;10.54;100.00;95442.31;4949163;29;20117;-77
2021/10/08 11:37:44;;;;;;;0.60;0.13;;;;;;;10.29;100.00;95437.22;4949724;29;20456;-77
2021/10/08 11:40:10;;;;;;;0.20;0.20;;;;;;;9.99;100.00;95431.56;4933447;28;20035;-77
2021/10/08 11:42:42;;;;;;;0.55;0.10;;;;;;;10.19;100.00;95434.75;4968095;28;20531;-77
2021/10/08 11:45:12;;;;;;;0.30;0.20;;;;;;;10.06;100.00;95439.53;4969131;28;20114;-77
2021/10/08 11:50:12;;;;;;;1.67;0.20;;;;;;;10.01;100.00;95427.06;4969075;28;20038;-78
2021/10/08 11:52:42;;;;;;;0.20;0.20;;;;;;;10.00;100.00;95427.22;4968830;28;20027;-77
2021/10/08 11:55:19;;;;;;;0.35;0.20;;;;;;;10.03;100.00;95426.91;4968088;28;20031;-77
2021/10/08 11:58:11;;;;;;;0.63;0.10;;;;;;;9.92;100.00;95416.84;4969504;28;20042;-77
2021/10/08 12:00:38;;;;;;;1.33;0.20;;;;;;;9.92;100.00;95420.22;4967420;28;20571;-77
2021/10/08 12:03:08;;;;;;;0.43;0.10;;;;;;;9.82;100.00;95408.38;4968650;28;20035;-76
2021/10/08 12:05:40;;;;;;;;;;;;;;;9.94;100.00;95426.06;4951334;28;20436;-76
2021/10/08 12:08:06;;;;;;;1.02;0.10;;;;;;;9.83;100.00;95428.91;4968163;28;19918;-76
2021/10/08 12:10:31;;;;;;;0.20;0.20;;;;;;;9.82;100.00;95426.50;4969069;28;20035;-76
2021/10/08 12:12:58;;;;;;;1.33;0.20;;;;;;;9.86;100.00;95433.78;4967606;28;20749;-77
2021/10/08 12:15:32;;;;;;;0.77;0.22;;;;;;;9.79;100.00;95417.25;4968623;28;20490;-76
2021/10/08 12:17:59;;;;;;;0.35;0.30;;;;;;;9.88;100.00;95433.63;4967614;28;20066;-75
2021/10/08 12:20:32;;;;;;;0.60;0.50;;;;;;;9.82;100.00;95439.44;4969175;28;20026;-77
2021/10/08 12:23:16;;;;;;;0.50;0.50;;;;;;;9.94;100.00;95445.94;4967895;28;20422;-77
2021/10/08 12:25:42;;;;;;;0.77;0.50;;;;;;;9.94;100.00;95443.34;4971117;28;20022;-77
2021/10/08 12:28:08;;;;;;;0.73;0.73;;;;;;;9.98;100.00;95453.25;4972488;28;20027;-77
2021/10/08 12:30:55;;;;;;;1.40;1.00;;;;;;;9.98;100.00;95455.84;4970727;28;20835;-76
2021/10/08 12:33:38;;;;;;;2.33;0.85;;;;;;;10.00;100.00;95456.50;4958070;28;20035;-77
2021/10/08 12:36:13;;;;;;;1.13;0.75;;;;;;;9.97;100.00;95461.97;4971276;28;20030;-77
2021/10/08 12:38:57;;;;;;;1.08;0.63;;;;;;;9.87;100.00;95450.94;4971105;28;20038;-77
2021/10/08 12:41:49;;;;;;;0.95;0.70;;;;;;;9.85;100.00;95447.69;4972295;28;20026;-77
2021/10/08 12:44:25;;;;;;;0.70;0.50;;;;;;;9.81;100.00;95446.38;4970666;28;20350;-77
2021/10/08 12:47:14;;;;;;;4.32;0.80;;;;;;;9.85;100.00;95447.69;4971575;28;20520;-77
2021/10/08 12:49:45;;;;;;;1.58;0.60;;;;;;;9.73;100.00;95451.47;4972427;28;20440;-75
2021/10/08 12:52:11;;;;;;;1.13;1.00;;;;;;;9.75;100.00;95449.56;4970428;28;20177;-77
2021/10/08 12:54:36;;;;;;;1.38;0.70;;;;;;;9.76;100.00;95458.16;4972228;28;20412;-77
2021/10/08 12:57:20;;;;;;;0.98;0.85;;;;;;;9.77;100.00;95463.16;4953036;28;20026;-77
2021/10/08 12:59:46;;;;;;;1.08;0.98;;;;;;;9.80;100.00;95459.44;4972076;28;20150;-78
2021/10/08 13:02:11;;;;;;;0.98;0.60;;;;;;;9.71;100.00;95452.59;4971668;28;20527;-77
2021/10/08 13:04:40;;;;;;;1.88;0.70;;;;;;;9.71;100.00;95465.53;4938102;28;20027;-77
2021/10/08 13:07:16;;;;;;;0.90;0.90;;;;;;;9.72;100.00;95454.25;4971814;28;20404;-78
2021/10/08 13:10:10;;;;;;;1.77;1.35;;;;;;;9.70;100.00;95469.88;4970395;28;20475;-78
2021/10/08 13:12:42;;;;;;;1.20;1.10;;;;;;;9.75;100.00;95462.50;4971893;28;20421;-77
2021/10/08 13:15:28;;;;;;;2.20;0.80;;;;;;;9.75;100.00;95459.91;4971147;28;20034;-77
2021/10/08 13:17:58;;;;;;;1.20;1.10;;;;;;;9.79;100.00;95445.69;4953681;28;20063;-78
2021/10/08 13:20:24;;;;;;;;;;;;;;;9.82;100.00;95440.25;4972285;28;20038;-78
2021/10/08 13:22:49;;;;;;;1.75;1.30;;;;;;;9.87;100.00;95429.41;4953230;28;19948;-78
2021/10/08 13:25:15;;;;;;;1.60;0.98;;;;;;;9.77;100.00;95411.44;4972217;28;20022;-77
2021/10/08 13:27:40;;;;;;;1.00;0.80;;;;;;;9.94;100.00;95423.47;4952911;28;20041;-78
2021/10/08 13:30:06;;;;;;;2.25;0.70;;;;;;;10.01;100.00;95416.72;4973293;28;20041;-78
2021/10/08 13:32:31;;;;;;;1.73;0.60;;;;;;;10.21;100.00;95411.31;4956454;28;20564;-81
2021/10/08 13:34:57;;;;;;;0.55;0.55;;;;;;;10.27;100.00;95405.53;4971251;28;20030;-77
2021/10/08 13:37:22;;;;;;;0.45;0.40;;;;;;;9.96;100.00;95385.31;4972469;28;20030;-78
2021/10/08 13:39:48;;;;;;;0.70;0.40;;;;;;;10.08;100.00;95381.47;4970483;28;20027;-77
2021/10/08 13:42:14;;;;;;;0.60;0.40;;;;;;;9.93;100.00;95379.63;4975205;28;20026;-77
2021/10/08 13:44:40;;;;;;;0.55;0.30;;;;;;;9.89;100.00;95386.91;4970224;28;20466;-75
2021/10/08 13:47:05;;;;;;;1.75;0.30;;;;;;;9.83;100.00;95381.53;4971697;28;20165;-77
2021/10/08 13:49:31;;;;;;;1.55;0.30;;;;;;;9.83;100.00;95384.13;4971279;28;20038;-78
2021/10/08 13:51:57;;;;;;;0.32;0.28;;;;;;;9.79;100.00;95373.28;4958001;28;20037;-79
2021/10/08 13:54:22;;;;;;;0.73;0.30;;;;;;;9.88;100.00;95377.53;4971208;28;20027;-79
2021/10/08 13:56:48;;;;;;;0.32;0.20;;;;;;;9.90;100.00;95370.41;4972757;28;20026;-79
2021/10/08 13:59:13;;;;;;;0.93;0.30;;;;;;;9.85;100.00;95364.09;4972840;28;20117;-78
2021/10/08 14:01:47;;;;;;;0.28;0.28;;;;;;;9.81;100.00;95361.00;4932994;29;20043;-79
2021/10/08 14:04:21;;;;;;;0.47;0.40;;;;;;;9.68;100.00;95363.22;4952055;28;20034;-78
2021/10/08 14:12:11;;;;;;;0.77;0.40;;;;;;;9.53;100.00;95349.25;4951479;29;20042;-79
2021/10/08 14:14:37;;;;;;;0.60;0.40;;;;;;;9.73;100.00;95370.53;4949774;28;20413;-78
2021/10/08 14:17:02;;;;;;;1.70;0.57;;;;;;;9.80;100.00;95376.66;4951979;28;20019;-80
2021/10/08 14:19:28;;;;;;;0.85;0.40;;;;;;;9.64;100.00;95377.41;4948226;29;20473;-77
2021/10/08 14:21:53;;;;;;;1.45;0.60;;;;;;;9.83;100.00;95379.75;4950229;28;20394;-78
2021/10/08 14:24:18;;;;;;;1.27;0.52;;;;;;;9.71;100.00;95381.00;4948878;29;20042;-77
2021/10/08 14:26:44;;;;;;;1.83;1.40;;;;;;;9.68;100.00;95373.56;4951394;28;20115;-77
2021/10/08 14:29:09;;;;;;;2.08;1.10;;;;;;;9.56;100.00;95369.63;4950273;28;20031;-77
2021/10/08 14:31:35;;;;;;;1.30;1.00;;;;;;;9.70;100.00;95378.56;4950170;28;20401;-77
2021/10/08 14:34:00;;;;;;;2.00;1.58;;;;;;;9.72;100.00;95376.66;4950677;28;20027;-78
2021/10/08 14:36:26;;;;;;;4.43;4.03;;;;;;;9.65;100.00;95386.81;4949103;28;20094;-78
2021/10/08 14:38:53;;;;;;;5.93;5.32;;;;;;;9.59;100.00;95395.19;4950726;28;20031;-77
2021/10/08 14:41:19;;;;;;;4.50;3.85;;;;;;;9.55;100.00;95391.28;4949619;28;20047;-77
2021/10/08 14:43:44;;;;;;;1.55;1.10;;;;;;;9.36;100.00;95389.72;4950527;28;20023;-77
2021/10/08 14:46:10;;;;;;;0.65;0.40;;;;;;;9.02;100.00;95366.38;4949119;28;20731;-76
2021/10/08 14:48:35;;;;;;;0.65;0.50;;;;;;;9.15;100.00;95365.97;4950477;28;20039;-77
2021/10/08 14:51:00;;;;;;;0.40;0.40;;;;;;;9.16;100.00;95371.97;4950580;28;20040;-77
2021/10/08 14:53:26;;;;;;;0.20;0.20;;;;;;;8.97;100.00;95370.38;4949212;28;20034;-77
2021/10/08 14:55:59;;;;;;;0.30;0.30;;;;;;;8.90;100.00;95372.75;4950646;28;20468;-77
2021/10/08 14:58:24;;;;;;;0.47;0.20;;;;;;;8.72;100.00;95368.56;4949531;28;20188;-76
2021/10/08 15:00:50;;;;;;;0.50;0.30;;;;;;;8.67;100.00;95378.56;4954236;28;20051;-76
2021/10/08 15:03:19;;;;;;;1.08;0.35;;;;;;;8.70;100.00;95373.88;4968483;28;20500;-76
2021/10/08 15:05:44;;;;;;;0.40;0.30;;;;;;;8.72;100.00;95371.97;4970198;28;20039;-75
2021/10/08 15:08:10;;;;;;;0.45;0.38;;;;;;;8.49;100.00;95373.38;4969572;28;20026;-75
2021/10/08 15:10:35;;;;;;;0.70;0.50;;;;;;;8.45;100.00;95392.69;4968787;28;20382;-75
2021/10/08 15:13:01;;;;;;;1.00;0.70;;;;;;;8.43;100.00;95385.09;4952682;28;20053;-77
2021/10/08 15:15:26;;;;;;;1.00;0.65;;;;;;;8.46;100.00;95384.81;4968419;28;20047;-77
2021/10/08 15:17:52;;;;;;;1.02;0.77;;;;;;;8.31;100.00;95394.03;4969940;28;20022;-78
2021/10/08 15:20:17;;;;;;;0.85;0.80;;;;;;;8.21;100.00;95384.69;4968757;28;20041;-78
2021/10/08 15:22:43;;;;;;;1.75;0.60;;;;;;;8.15;100.00;95386.09;4952664;28;20027;-77
2021/10/08 15:25:09;;;;;;;1.08;0.80;;;;;;;8.05;100.00;95390.47;4968113;28;20099;-77
2021/10/08 15:27:35;;;;;;;0.80;0.80;;;;;;;8.07;100.00;95388.56;4969654;28;20031;-78
2021/10/08 15:30:00;;;;;;;2.72;0.82;;;;;;;8.02;100.00;95395.13;4969469;28;20153;-77
2021/10/08 15:32:27;;;;;;;1.27;1.17;;;;;;;7.98;100.00;95397.16;4968847;28;20405;-78
2021/10/08 15:34:53;;;;;;;1.92;1.13;;;;;;;7.93;100.00;95397.59;4969828;28;20035;-77
2021/10/08 15:37:18;;;;;;;3.53;0.93;;;;;;;7.87;100.00;95400.72;4967922;28;20501;-77
2021/10/08 15:39:44;;;;;;;2.20;0.65;;;;;;;7.83;100.00;95401.97;4968598;28;20055;-77
2021/10/08 15:42:10;;;;;;;2.67;0.88;;;;;;;7.84;100.00;95413.91;4968102;28;20015;-77
2021/10/08 15:44:36;;;;;;;0.75;0.73;;;;;;;7.77;100.00;95428.31;4968909;28;20496;-77
2021/10/08 15:47:01;;;;;;;0.77;0.77;;;;;;;7.72;100.00;95433.09;4967913;28;20023;-77
2021/10/08 15:49:27;;;;;;;1.05;0.82;;;;;;;7.70;100.00;95436.78;4969826;28;20030;-80
2021/10/08 15:51:52;;;;;;;3.30;1.73;;;;;;;7.66;100.00;95438.81;4968961;28;20034;-77
2021/10/08 15:54:18;;;;;;;2.53;1.13;;;;;;;7.68;100.00;95444.63;4969148;28;20027;-77
2021/10/08 15:56:43;;;;;;;1.65;0.90;;;;;;;7.64;100.00;95438.13;4969633;28;20294;-77
2021/10/08 15:59:09;;;;;;;1.33;0.82;;;;;;;7.74;100.00;95445.84;4971026;28;20019;-77
2021/10/08 16:01:34;;;;;;;0.90;0.80;;;;;;;7.59;100.00;95444.66;4972932;28;20136;-77
2021/10/08 16:04:00;;;;;;;1.15;1.05;;;;;;;7.49;100.00;95447.28;4971642;28;20026;-78
2021/10/08 16:06:25;;;;;;;1.40;1.20;;;;;;;7.50;100.00;95453.25;4973178;28;20473;-77
2021/10/08 16:08:51;;;;;;;4.93;1.63;;;;;;;7.50;100.00;95461.78;4971245;28;20035;-77
2021/10/08 16:11:16;;;;;;;1.55;1.15;;;;;;;7.54;100.00;95452.03;4972894;28;20038;-77
2021/10/08 16:13:42;;;;;;;1.02;0.93;;;;;;;7.55;100.00;95461.34;4972254;28;20034;-77
2021/10/08 16:16:09;;;;;;;1.77;1.40;;;;;;;7.61;100.00;95459.03;4972088;28;20102;-77
2021/10/08 16:19:00;;;;;;;1.20;0.82;;;;;;;7.51;100.00;95458.28;4972702;28;20539;-77
2021/10/08 16:21:23;;;;;;;1.20;0.95;;;;;;;7.47;100.00;95466.41;4970897;28;20148;-77
2021/10/08 16:23:49;;;;;;;1.25;0.80;;;;;;;7.59;100.00;95470.44;4972269;28;20033;-77
2021/10/08 16:26:15;;;;;;;0.75;0.75;;;;;;;7.49;100.00;95464.50;4971714;28;20031;-78
2021/10/08 16:28:40;;;;;;;4.15;2.22;;;;;;;7.52;100.00;95467.59;4972561;28;20038;-77
2021/10/08 16:31:06;;;;;;;6.15;3.78;;;;;;;7.48;100.00;95466.25;4972096;28;20035;-78
2021/10/08 16:33:31;;;;;;;3.50;2.05;;;;;;;7.48;100.00;95461.09;4953978;28;20118;-77
2021/10/08 16:35:58;;;;;;;3.30;1.73;;;;;;;7.62;100.00;95463.25;4972630;28;20030;-78
2021/10/08 16:38:24;;;;;;;2.08;1.35;;;;;;;7.55;100.00;95464.75;4970601;28;20469;-78
2021/10/08 16:40:49;;;;;;;1.25;1.15;;;;;;;7.57;100.00;95462.88;4972000;28;20034;-78
2021/10/08 16:43:15;;;;;;;2.85;1.52;;;;;;;7.54;100.00;95473.47;4971149;28;20033;-75
2021/10/08 16:45:40;;;;;;;2.00;1.67;;;;;;;7.51;100.00;95486.63;4971954;28;20456;-77
2021/10/08 16:48:07;;;;;;;1.00;0.60;;;;;;;7.62;100.00;95483.88;4971783;28;20026;-75
2021/10/08 16:50:33;;;;;;;1.40;1.08;;;;;;;7.49;100.00;95493.66;4971711;28;20035;-75